Time;durP1;ratioP1;P1;durP2;ratioP2;P2;SDS_P1;SDS_P2;PMS_P1;PMS_P2;Temp;Humidity;BMP_temperature;BMP_pressure;BME280_temperature;BME280_humidity;BME280_pressure;Samples;Min_cycle;Max_cycle;Signal;HPM_P1;HPM_P2
2023/05/07 00:00:18;;;;;;;18.70;14.10;;;;;;;;;;107697;1251;25341;-77
2023/05/07 00:03:05;;;;;;;21.00;13.70;;;;;;;;;;107696;1251;25309;-79
2023/05/07 00:05:31;;;;;;;17.40;13.90;;;;;;;;;;108071;1251;26414;-77
2023/05/07 00:07:57;;;;;;;17.30;12.90;;;;;;;;;;107731;1251;22540;-79
2023/05/07 00:10:25;;;;;;;18.00;13.60;;;;;;;;;;107741;1250;24361;-80
2023/05/07 00:12:51;;;;;;;22.60;14.10;;;;;;;;;;107721;1251;22556;-77
2023/05/07 00:15:17;;;;;;;21.20;14.80;;;;;;;;;;110375;1251;22500;-79
2023/05/07 00:17:44;;;;;;;28.80;15.90;;;;;;;;;;108400;1251;22602;-79
2023/05/07 00:20:10;;;;;;;25.20;16.10;;;;;;;;;;107736;1253;22528;-77
2023/05/07 00:22:37;;;;;;;24.30;14.90;;;;;;;;;;107680;1251;22545;-77
2023/05/07 00:25:04;;;;;;;25.60;17.00;;;;;;;;;;107710;1251;24112;-77
2023/05/07 00:27:30;;;;;;;24.90;14.80;;;;;;;;;;107653;1250;22544;-77
2023/05/07 00:29:57;;;;;;;27.90;15.90;;;;;;;;;;107690;1250;22569;-78
2023/05/07 00:32:23;;;;;;;23.10;16.40;;;;;;;;;;107681;1251;25332;-77
2023/05/07 00:34:50;;;;;;;24.60;15.70;;;;;;;;;;107688;1253;22533;-79
2023/05/07 00:37:17;;;;;;;24.00;14.80;;;;;;;;;;107716;1249;22518;-77
2023/05/07 00:39:43;;;;;;;30.50;17.00;;;;;;;;;;107705;1254;22540;-79
2023/05/07 00:42:09;;;;;;;29.80;17.70;;;;;;;;;;107632;1250;26493;-77
2023/05/07 00:44:36;;;;;;;27.20;18.70;;;;;;;;;;107695;1251;22518;-77
2023/05/07 00:47:03;;;;;;;29.50;18.30;;;;;;;;;;107704;1251;22519;-79
2023/05/07 00:49:37;;;;;;;32.20;19.20;;;;;;;;;;107670;1250;24852;-79
2023/05/07 00:52:04;;;;;;;35.10;20.90;;;;;;;;;;107621;1249;22531;-77
2023/05/07 00:54:31;;;;;;;34.90;20.40;;;;;;;;;;107658;1250;23263;-80
2023/05/07 00:56:57;;;;;;;36.80;20.60;;;;;;;;;;107660;1250;22550;-79
2023/05/07 00:59:23;;;;;;;32.30;20.40;;;;;;;;;;107728;1251;22550;-77
2023/05/07 01:01:50;;;;;;;33.00;19.70;;;;;;;;;;107656;1253;25558;-79
2023/05/07 01:04:16;;;;;;;29.90;18.40;;;;;;;;;;107644;1253;22987;-79
2023/05/07 01:06:42;;;;;;;30.20;18.60;;;;;;;;;;107651;1250;22630;-79
2023/05/07 01:09:09;;;;;;;30.00;19.20;;;;;;;;;;107708;1251;22532;-79
2023/05/07 01:11:35;;;;;;;28.00;18.00;;;;;;;;;;107730;1252;25190;-79
2023/05/07 01:14:01;;;;;;;24.60;14.40;;;;;;;;;;107696;1251;22532;-77
2023/05/07 01:16:27;;;;;;;23.00;13.90;;;;;;;;;;107718;1250;24217;-77
2023/05/07 01:18:54;;;;;;;23.90;13.30;;;;;;;;;;107638;1251;26398;-79
2023/05/07 01:21:22;;;;;;;13.00;10.40;;;;;;;;;;107741;1251;22845;-78
2023/05/07 01:23:48;;;;;;;17.80;12.70;;;;;;;;;;107696;1250;22524;-77
2023/05/07 01:26:16;;;;;;;19.40;12.40;;;;;;;;;;107622;1251;22644;-77
2023/05/07 01:28:42;;;;;;;18.30;12.90;;;;;;;;;;107678;1251;25230;-79
2023/05/07 01:31:08;;;;;;;17.80;12.50;;;;;;;;;;107696;1250;22601;-79
2023/05/07 01:33:35;;;;;;;15.90;12.00;;;;;;;;;;107696;1251;22622;-77
2023/05/07 01:36:03;;;;;;;18.30;13.20;;;;;;;;;;107656;1256;22539;-78
2023/05/07 01:38:29;;;;;;;16.30;11.30;;;;;;;;;;107666;1250;22660;-77
2023/05/07 01:40:56;;;;;;;17.10;12.30;;;;;;;;;;107717;1251;24327;-80
2023/05/07 01:43:22;;;;;;;18.70;13.60;;;;;;;;;;107705;1251;22541;-78
2023/05/07 01:45:49;;;;;;;16.40;11.50;;;;;;;;;;107778;1251;22518;-78
2023/05/07 01:48:15;;;;;;;15.90;12.10;;;;;;;;;;107762;1253;22564;-78
2023/05/07 01:50:42;;;;;;;18.20;11.90;;;;;;;;;;107701;1251;25274;-80
2023/05/07 01:53:09;;;;;;;17.50;12.00;;;;;;;;;;107765;1250;22518;-80
2023/05/07 01:55:36;;;;;;;18.50;12.80;;;;;;;;;;107705;1251;25319;-81
2023/05/07 01:58:03;;;;;;;16.30;11.50;;;;;;;;;;107735;1253;25249;-78
2023/05/07 02:00:29;;;;;;;19.40;15.00;;;;;;;;;;107592;1250;143124;-78
2023/05/07 02:02:56;;;;;;;16.60;12.70;;;;;;;;;;107699;1251;25269;-78
2023/05/07 02:05:22;;;;;;;18.50;12.50;;;;;;;;;;107635;1251;25214;-80
2023/05/07 02:07:49;;;;;;;20.60;13.70;;;;;;;;;;107751;1250;24202;-80
2023/05/07 02:10:15;;;;;;;17.30;12.40;;;;;;;;;;108924;1251;22366;-80
2023/05/07 02:12:42;;;;;;;20.30;15.10;;;;;;;;;;110925;1249;22853;-78
2023/05/07 02:15:09;;;;;;;20.30;15.90;;;;;;;;;;110930;1249;22241;-78
2023/05/07 02:17:39;;;;;;;18.40;13.60;;;;;;;;;;110892;1250;22193;-76
2023/05/07 02:20:07;;;;;;;19.50;13.90;;;;;;;;;;108875;1251;22801;-77
2023/05/07 02:22:33;;;;;;;18.10;13.90;;;;;;;;;;110871;1250;22395;-78
2023/05/07 02:24:59;;;;;;;21.20;14.90;;;;;;;;;;110930;1249;22196;-76
2023/05/07 02:27:26;;;;;;;20.60;13.70;;;;;;;;;;110928;1250;22228;-78
2023/05/07 02:29:52;;;;;;;19.40;13.60;;;;;;;;;;110828;1249;22923;-78
2023/05/07 02:32:18;;;;;;;22.00;16.00;;;;;;;;;;110896;1251;22320;-77
2023/05/07 02:34:44;;;;;;;26.20;15.70;;;;;;;;;;108109;1249;25294;-76
2023/05/07 02:37:11;;;;;;;18.40;12.80;;;;;;;;;;107633;1253;22560;-80
2023/05/07 02:39:37;;;;;;;19.70;12.50;;;;;;;;;;107662;1251;24215;-79
2023/05/07 02:42:03;;;;;;;20.30;14.10;;;;;;;;;;107650;1251;22629;-78
2023/05/07 02:44:31;;;;;;;22.00;15.20;;;;;;;;;;107643;1250;22521;-80
2023/05/07 02:46:57;;;;;;;21.60;13.60;;;;;;;;;;107649;1251;25216;-80
2023/05/07 02:49:24;;;;;;;20.10;14.70;;;;;;;;;;107657;1251;23356;-78
2023/05/07 02:51:50;;;;;;;19.50;13.10;;;;;;;;;;110693;1249;22919;-76
2023/05/07 02:54:17;;;;;;;20.00;13.00;;;;;;;;;;110907;1249;22389;-78
2023/05/07 02:56:44;;;;;;;22.30;14.70;;;;;;;;;;110913;1249;22382;-76
2023/05/07 02:59:10;;;;;;;22.00;15.70;;;;;;;;;;110894;1250;22341;-78
2023/05/07 03:01:37;;;;;;;23.10;14.80;;;;;;;;;;110953;1248;22476;-78
2023/05/07 03:04:03;;;;;;;22.00;15.50;;;;;;;;;;110223;1250;25241;-78
2023/05/07 03:06:30;;;;;;;21.90;15.10;;;;;;;;;;107849;1248;22827;-80
2023/05/07 03:08:56;;;;;;;18.10;13.10;;;;;;;;;;107853;1249;25348;-78
2023/05/07 03:11:23;;;;;;;21.20;15.30;;;;;;;;;;107837;1247;22522;-78
2023/05/07 03:13:49;;;;;;;19.70;15.20;;;;;;;;;;110198;1250;22204;-76
2023/05/07 03:16:16;;;;;;;19.20;14.00;;;;;;;;;;110990;1247;22178;-78
2023/05/07 03:18:42;;;;;;;20.80;15.90;;;;;;;;;;110958;1248;22343;-78
2023/05/07 03:21:08;;;;;;;22.10;15.20;;;;;;;;;;110979;1248;22722;-78
2023/05/07 03:23:35;;;;;;;23.40;15.80;;;;;;;;;;110890;1247;22552;-76
2023/05/07 03:26:01;;;;;;;24.70;17.30;;;;;;;;;;108486;1247;22319;-80
2023/05/07 03:28:27;;;;;;;25.90;18.20;;;;;;;;;;110780;1250;22512;-76
2023/05/07 03:30:54;;;;;;;34.50;19.70;;;;;;;;;;110836;1250;22244;-77
2023/05/07 03:33:20;;;;;;;30.20;19.70;;;;;;;;;;109374;1250;23896;-77
2023/05/07 03:35:46;;;;;;;31.70;21.60;;;;;;;;;;107677;1250;22570;-80
2023/05/07 03:38:13;;;;;;;30.10;19.40;;;;;;;;;;107698;1251;22523;-78
2023/05/07 03:40:39;;;;;;;34.60;21.40;;;;;;;;;;107705;1250;25094;-78
2023/05/07 03:43:05;;;;;;;29.90;20.40;;;;;;;;;;107651;1251;26187;-78
2023/05/07 03:45:32;;;;;;;33.10;22.10;;;;;;;;;;107681;1253;22518;-78
2023/05/07 03:47:58;;;;;;;34.30;22.60;;;;;;;;;;107664;1250;22587;-78
2023/05/07 03:50:24;;;;;;;34.20;21.50;;;;;;;;;;107670;1250;22561;-80
2023/05/07 03:52:51;;;;;;;29.50;19.70;;;;;;;;;;107668;1251;24196;-78
2023/05/07 03:55:17;;;;;;;36.30;21.00;;;;;;;;;;107653;1251;22938;-78
2023/05/07 03:57:44;;;;;;;32.50;21.40;;;;;;;;;;107753;1250;23010;-79
2023/05/07 04:00:10;;;;;;;29.20;20.50;;;;;;;;;;107811;1249;24275;-81
2023/05/07 04:02:37;;;;;;;24.60;17.30;;;;;;;;;;107743;1250;25207;-78
2023/05/07 04:05:03;;;;;;;27.70;20.20;;;;;;;;;;107863;1248;24195;-80
2023/05/07 04:07:30;;;;;;;30.30;20.30;;;;;;;;;;107865;1248;23044;-78
2023/05/07 04:09:56;;;;;;;29.40;20.20;;;;;;;;;;107909;1252;24188;-78
2023/05/07 04:12:22;;;;;;;31.10;21.90;;;;;;;;;;107870;1248;25227;-78
2023/05/07 04:14:49;;;;;;;31.50;21.40;;;;;;;;;;107773;1248;25441;-78
2023/05/07 04:17:15;;;;;;;33.90;21.40;;;;;;;;;;107860;1248;22517;-80
2023/05/07 04:19:45;;;;;;;33.10;21.20;;;;;;;;;;107900;1248;23126;-78
2023/05/07 04:22:11;;;;;;;34.80;22.30;;;;;;;;;;107885;1251;24514;-80
2023/05/07 04:24:38;;;;;;;27.90;17.70;;;;;;;;;;108075;1248;23926;-80
2023/05/07 04:27:06;;;;;;;24.60;16.70;;;;;;;;;;111002;1247;22898;-76
2023/05/07 04:29:32;;;;;;;26.50;17.70;;;;;;;;;;110372;1249;22238;-76
2023/05/07 04:31:58;;;;;;;31.20;16.40;;;;;;;;;;108644;1249;22617;-78
2023/05/07 04:34:25;;;;;;;20.90;14.10;;;;;;;;;;107759;1251;25328;-78
2023/05/07 04:36:51;;;;;;;27.60;17.60;;;;;;;;;;107775;1250;22523;-78
2023/05/07 04:39:17;;;;;;;22.80;14.40;;;;;;;;;;107718;1250;23102;-78
2023/05/07 04:41:44;;;;;;;21.10;12.70;;;;;;;;;;107780;1247;23702;-79
2023/05/07 04:44:10;;;;;;;23.10;14.50;;;;;;;;;;109629;1247;22589;-76
2023/05/07 04:46:37;;;;;;;24.30;14.80;;;;;;;;;;111052;1247;22262;-78
2023/05/07 04:49:03;;;;;;;22.60;13.50;;;;;;;;;;110497;1248;22574;-78
2023/05/07 04:51:32;;;;;;;25.30;13.60;;;;;;;;;;107953;1247;22561;-80
2023/05/07 04:53:59;;;;;;;21.10;12.70;;;;;;;;;;107946;1248;22541;-80
2023/05/07 04:56:27;;;;;;;30.00;14.50;;;;;;;;;;107890;1248;22522;-77
2023/05/07 04:58:53;;;;;;;24.90;12.80;;;;;;;;;;107738;1250;22982;-78
2023/05/07 05:01:19;;;;;;;23.90;15.80;;;;;;;;;;107819;1247;25334;-80
2023/05/07 05:03:46;;;;;;;20.10;11.40;;;;;;;;;;107868;1247;22541;-80
2023/05/07 05:06:12;;;;;;;21.90;16.00;;;;;;;;;;107885;1247;22551;-80
2023/05/07 05:08:38;;;;;;;22.70;14.30;;;;;;;;;;107900;1247;26321;-80
2023/05/07 05:11:05;;;;;;;22.70;14.50;;;;;;;;;;107682;1254;25321;-80
2023/05/07 05:13:31;;;;;;;24.00;15.20;;;;;;;;;;107867;1247;22524;-78
2023/05/07 05:15:57;;;;;;;27.30;13.80;;;;;;;;;;107926;1247;25370;-80
2023/05/07 05:18:24;;;;;;;26.00;14.30;;;;;;;;;;107901;1252;25204;-78
2023/05/07 05:20:51;;;;;;;24.40;15.20;;;;;;;;;;107854;1247;22530;-80
2023/05/07 05:23:17;;;;;;;26.00;15.50;;;;;;;;;;107909;1247;24225;-78
2023/05/07 05:25:44;;;;;;;21.70;14.90;;;;;;;;;;107915;1250;25392;-80
2023/05/07 05:28:11;;;;;;;22.10;14.00;;;;;;;;;;107858;1247;24103;-78
2023/05/07 05:30:37;;;;;;;21.00;13.80;;;;;;;;;;107876;1247;25489;-79
2023/05/07 05:33:03;;;;;;;19.80;12.90;;;;;;;;;;107837;1247;23232;-80
2023/05/07 05:35:30;;;;;;;22.50;13.70;;;;;;;;;;107888;1250;22548;-79
2023/05/07 05:37:56;;;;;;;26.90;15.00;;;;;;;;;;107692;1247;25446;-80
2023/05/07 05:40:23;;;;;;;20.90;15.10;;;;;;;;;;107688;1248;22539;-79
2023/05/07 05:42:49;;;;;;;23.10;13.60;;;;;;;;;;107899;1248;23002;-78
2023/05/07 05:45:16;;;;;;;24.10;15.20;;;;;;;;;;107875;1247;24371;-78
2023/05/07 05:47:42;;;;;;;22.90;14.90;;;;;;;;;;107906;1247;23438;-80
2023/05/07 05:50:09;;;;;;;25.30;16.20;;;;;;;;;;107887;1247;25346;-80
2023/05/07 05:52:35;;;;;;;23.40;16.40;;;;;;;;;;107838;1248;22990;-80
2023/05/07 05:55:02;;;;;;;24.70;16.50;;;;;;;;;;107923;1247;24212;-79
2023/05/07 05:57:28;;;;;;;26.20;17.90;;;;;;;;;;107911;1253;22661;-80
2023/05/07 05:59:55;;;;;;;27.30;16.90;;;;;;;;;;107868;1248;22531;-80
2023/05/07 06:02:21;;;;;;;21.20;14.70;;;;;;;;;;107666;1251;22538;-80
2023/05/07 06:04:47;;;;;;;28.60;17.40;;;;;;;;;;107884;1250;24149;-79
2023/05/07 06:07:14;;;;;;;21.70;14.00;;;;;;;;;;107722;1250;22522;-80
2023/05/07 06:09:40;;;;;;;22.50;13.60;;;;;;;;;;107746;1250;22697;-79
2023/05/07 06:12:06;;;;;;;21.60;12.80;;;;;;;;;;107756;1251;25344;-78
2023/05/07 06:14:33;;;;;;;23.60;14.60;;;;;;;;;;107751;1250;22869;-80
2023/05/07 06:16:59;;;;;;;23.90;15.00;;;;;;;;;;107711;1250;23398;-78
2023/05/07 06:19:27;;;;;;;21.60;14.60;;;;;;;;;;107774;1251;22541;-78
2023/05/07 06:21:56;;;;;;;19.00;12.20;;;;;;;;;;107730;1251;23124;-80
2023/05/07 06:24:22;;;;;;;21.10;13.70;;;;;;;;;;107603;1249;22546;-79
2023/05/07 06:26:48;;;;;;;25.90;17.00;;;;;;;;;;107718;1251;22916;-80
2023/05/07 06:29:15;;;;;;;20.10;13.40;;;;;;;;;;107783;1247;22507;-80
2023/05/07 06:31:41;;;;;;;18.90;11.40;;;;;;;;;;107890;1247;22609;-80
2023/05/07 06:34:08;;;;;;;15.00;9.60;;;;;;;;;;107847;1248;22528;-78
2023/05/07 06:36:34;;;;;;;13.30;8.40;;;;;;;;;;107895;1247;22651;-80
2023/05/07 06:39:01;;;;;;;11.00;7.50;;;;;;;;;;107864;1248;24311;-78
2023/05/07 06:41:27;;;;;;;9.00;5.90;;;;;;;;;;107863;1247;25309;-78
2023/05/07 06:43:54;;;;;;;8.90;6.20;;;;;;;;;;107878;1247;22687;-78
2023/05/07 06:46:20;;;;;;;6.60;5.40;;;;;;;;;;107890;1247;26469;-78
2023/05/07 06:48:46;;;;;;;9.20;5.50;;;;;;;;;;107864;1247;22530;-80
2023/05/07 06:51:13;;;;;;;7.40;5.70;;;;;;;;;;107854;1247;23399;-80
2023/05/07 06:53:40;;;;;;;7.60;5.20;;;;;;;;;;107854;1247;22635;-77
2023/05/07 06:56:06;;;;;;;6.80;4.30;;;;;;;;;;107883;1247;26375;-80
2023/05/07 06:58:33;;;;;;;6.70;5.10;;;;;;;;;;107694;1250;22520;-78
2023/05/07 07:00:59;;;;;;;6.30;4.00;;;;;;;;;;107731;1247;24256;-80
2023/05/07 07:03:25;;;;;;;6.00;3.90;;;;;;;;;;107910;1252;22626;-80
2023/05/07 07:05:53;;;;;;;3.70;2.60;;;;;;;;;;108856;1247;25380;-80
2023/05/07 07:08:21;;;;;;;6.70;3.70;;;;;;;;;;107880;1252;25325;-80
2023/05/07 07:10:47;;;;;;;5.20;2.70;;;;;;;;;;107858;1247;25466;-78
2023/05/07 07:13:13;;;;;;;3.40;2.50;;;;;;;;;;107832;1247;22616;-78
2023/05/07 07:15:40;;;;;;;4.30;2.10;;;;;;;;;;107870;1252;22527;-81
2023/05/07 07:18:06;;;;;;;2.50;1.80;;;;;;;;;;107708;1247;23010;-80
2023/05/07 07:20:33;;;;;;;2.90;1.60;;;;;;;;;;107902;1248;23200;-79
2023/05/07 07:22:59;;;;;;;2.80;1.50;;;;;;;;;;107919;1252;22514;-80
2023/05/07 07:25:25;;;;;;;4.40;1.50;;;;;;;;;;107889;1247;22525;-78
2023/05/07 07:27:52;;;;;;;2.00;1.40;;;;;;;;;;107918;1252;25256;-78
2023/05/07 07:30:18;;;;;;;3.50;1.40;;;;;;;;;;107860;1247;22657;-80
2023/05/07 07:32:45;;;;;;;2.80;1.80;;;;;;;;;;107857;1247;24324;-78
2023/05/07 07:35:11;;;;;;;3.50;1.80;;;;;;;;;;107762;1248;26626;-79
2023/05/07 07:37:38;;;;;;;2.50;1.80;;;;;;;;;;107854;1247;22521;-78
2023/05/07 07:40:05;;;;;;;2.60;1.70;;;;;;;;;;108322;1247;23746;-78
2023/05/07 07:42:31;;;;;;;4.70;2.30;;;;;;;;;;107914;1248;24291;-80
2023/05/07 07:44:57;;;;;;;2.70;2.00;;;;;;;;;;107917;1252;25268;-78
2023/05/07 07:47:24;;;;;;;3.30;2.10;;;;;;;;;;107861;1247;24237;-78
2023/05/07 07:49:50;;;;;;;2.50;2.10;;;;;;;;;;107886;1247;23431;-80
2023/05/07 07:52:16;;;;;;;2.10;1.80;;;;;;;;;;107879;1247;22510;-77
2023/05/07 07:54:43;;;;;;;2.80;2.10;;;;;;;;;;107885;1252;25208;-80
2023/05/07 07:57:10;;;;;;;4.20;1.90;;;;;;;;;;107691;1248;22729;-78
2023/05/07 07:59:36;;;;;;;3.30;2.40;;;;;;;;;;107904;1247;23130;-77
2023/05/07 08:02:03;;;;;;;2.80;1.80;;;;;;;;;;107879;1250;22524;-77
2023/05/07 08:04:30;;;;;;;4.20;2.30;;;;;;;;;;108208;1248;24193;-78
2023/05/07 08:06:57;;;;;;;2.40;1.90;;;;;;;;;;107874;1247;23310;-78
2023/05/07 08:09:23;;;;;;;2.20;1.80;;;;;;;;;;107942;1247;22628;-79
2023/05/07 08:11:50;;;;;;;2.90;1.70;;;;;;;;;;107920;1247;25321;-77
2023/05/07 08:14:16;;;;;;;2.70;2.40;;;;;;;;;;108014;1247;22527;-78
2023/05/07 08:16:43;;;;;;;3.60;3.20;;;;;;;;;;108210;1252;22543;-79
2023/05/07 08:19:09;;;;;;;11.30;8.50;;;;;;;;;;108175;1247;24206;-79
2023/05/07 08:21:38;;;;;;;3.60;2.60;;;;;;;;;;107936;1247;24237;-78
2023/05/07 08:24:05;;;;;;;4.50;2.90;;;;;;;;;;107924;1247;23760;-78
2023/05/07 08:26:31;;;;;;;8.70;7.10;;;;;;;;;;107946;1247;24202;-80
2023/05/07 08:28:57;;;;;;;6.70;5.00;;;;;;;;;;107940;1247;22545;-80
2023/05/07 08:31:24;;;;;;;3.80;3.20;;;;;;;;;;107972;1253;23174;-80
2023/05/07 08:33:50;;;;;;;5.80;3.70;;;;;;;;;;107901;1247;22565;-78
2023/05/07 08:36:18;;;;;;;3.60;3.20;;;;;;;;;;107789;1247;22558;-80
2023/05/07 08:38:45;;;;;;;4.20;3.60;;;;;;;;;;107913;1247;25252;-78
2023/05/07 08:41:11;;;;;;;4.60;3.50;;;;;;;;;;107923;1248;22622;-80
2023/05/07 08:43:38;;;;;;;7.70;5.60;;;;;;;;;;108446;1247;23175;-78
2023/05/07 08:46:04;;;;;;;5.70;4.20;;;;;;;;;;107912;1247;22518;-77
2023/05/07 08:48:31;;;;;;;5.00;3.50;;;;;;;;;;107862;1247;25396;-80
2023/05/07 08:50:57;;;;;;;5.20;4.20;;;;;;;;;;107917;1247;24249;-80
2023/05/07 08:53:24;;;;;;;6.80;4.80;;;;;;;;;;107901;1247;22521;-77
2023/05/07 08:55:50;;;;;;;5.00;3.70;;;;;;;;;;107897;1248;22515;-77
2023/05/07 08:58:17;;;;;;;4.10;3.30;;;;;;;;;;107887;1247;24300;-78
2023/05/07 09:00:43;;;;;;;4.60;4.10;;;;;;;;;;107822;1247;22720;-79
2023/05/07 09:03:13;;;;;;;4.00;3.60;;;;;;;;;;107860;1252;22511;-80
2023/05/07 09:05:40;;;;;;;5.10;4.20;;;;;;;;;;107927;1247;24247;-78
2023/05/07 09:08:07;;;;;;;5.30;4.20;;;;;;;;;;107818;1247;22548;-80
2023/05/07 09:10:33;;;;;;;5.90;3.90;;;;;;;;;;107931;1247;22521;-78
2023/05/07 09:13:00;;;;;;;10.90;7.70;;;;;;;;;;108561;1248;22514;-78
2023/05/07 09:15:26;;;;;;;14.90;10.70;;;;;;;;;;107920;1247;22523;-77
2023/05/07 09:17:53;;;;;;;44.80;32.30;;;;;;;;;;107721;1248;22865;-78
2023/05/07 09:20:19;;;;;;;18.10;16.00;;;;;;;;;;107932;1252;25026;-78
2023/05/07 09:22:45;;;;;;;7.30;5.50;;;;;;;;;;107876;1247;24273;-80
2023/05/07 09:25:12;;;;;;;8.80;7.70;;;;;;;;;;107889;1252;22537;-80
2023/05/07 09:27:38;;;;;;;12.40;10.80;;;;;;;;;;107926;1248;22530;-78
2023/05/07 09:30:06;;;;;;;7.20;6.40;;;;;;;;;;107919;1247;22518;-80
2023/05/07 09:32:37;;;;;;;9.60;8.60;;;;;;;;;;107773;1248;22639;-80
2023/05/07 09:35:04;;;;;;;11.30;5.70;;;;;;;;;;109372;1250;25363;-80
2023/05/07 09:37:30;;;;;;;24.10;21.80;;;;;;;;;;107907;1252;22519;-78
2023/05/07 09:39:57;;;;;;;11.10;8.10;;;;;;;;;;107861;1247;23071;-78
2023/05/07 09:42:24;;;;;;;12.00;8.20;;;;;;;;;;107704;1254;22525;-80
2023/05/07 09:44:51;;;;;;;18.60;16.80;;;;;;;;;;107879;1247;25335;-78
2023/05/07 09:47:18;;;;;;;17.00;13.90;;;;;;;;;;107880;1248;22514;-80
2023/05/07 09:49:46;;;;;;;9.70;8.60;;;;;;;;;;107888;1247;24389;-78
2023/05/07 09:52:12;;;;;;;16.80;11.30;;;;;;;;;;107893;1252;22542;-78
2023/05/07 09:54:40;;;;;;;8.20;6.90;;;;;;;;;;107931;1247;22537;-78
2023/05/07 09:57:06;;;;;;;8.80;7.70;;;;;;;;;;107958;1252;26460;-80
2023/05/07 09:59:33;;;;;;;10.60;9.50;;;;;;;;;;107868;1248;22955;-78
2023/05/07 10:01:59;;;;;;;9.80;8.10;;;;;;;;;;107773;1250;23914;-78
2023/05/07 10:04:26;;;;;;;38.20;26.60;;;;;;;;;;107651;1251;22533;-79
2023/05/07 10:06:53;;;;;;;17.10;15.30;;;;;;;;;;107695;1253;22998;-80
2023/05/07 10:09:19;;;;;;;16.30;14.30;;;;;;;;;;107683;1254;27919;-78
2023/05/07 10:11:46;;;;;;;15.60;11.90;;;;;;;;;;107743;1250;22534;-78
2023/05/07 10:14:12;;;;;;;16.80;14.80;;;;;;;;;;107656;1250;22616;-78
2023/05/07 10:16:39;;;;;;;25.00;16.10;;;;;;;;;;107736;1250;24167;-78
2023/05/07 10:19:05;;;;;;;10.90;9.70;;;;;;;;;;107748;1250;22668;-78
2023/05/07 10:21:34;;;;;;;9.90;8.70;;;;;;;;;;107678;1250;22547;-80
2023/05/07 10:24:13;;;;;;;28.00;25.10;;;;;;;;;;107717;1249;22557;-80
2023/05/07 10:26:40;;;;;;;31.30;22.10;;;;;;;;;;107689;1251;22566;-78
2023/05/07 10:29:10;;;;;;;15.20;10.20;;;;;;;;;;107747;1248;23048;-78
2023/05/07 10:31:46;;;;;;;10.60;9.40;;;;;;;;;;107954;1249;25216;-78
2023/05/07 10:34:13;;;;;;;17.30;13.80;;;;;;;;;;107889;1250;22541;-79
2023/05/07 10:36:39;;;;;;;8.40;7.20;;;;;;;;;;108010;1250;22983;-79
2023/05/07 10:39:06;;;;;;;24.30;19.40;;;;;;;;;;107892;1253;22523;-81
2023/05/07 10:41:32;;;;;;;14.20;10.80;;;;;;;;;;107933;1247;26203;-78
2023/05/07 10:44:01;;;;;;;11.60;9.00;;;;;;;;;;107927;1247;25337;-75
2023/05/07 10:46:27;;;;;;;12.30;11.10;;;;;;;;;;107859;1247;24249;-79
2023/05/07 10:49:00;;;;;;;12.70;11.40;;;;;;;;;;107872;1252;25207;-78
2023/05/07 10:51:26;;;;;;;20.70;17.70;;;;;;;;;;107928;1247;24218;-77
2023/05/07 10:54:11;;;;;;;15.40;11.30;;;;;;;;;;107907;1247;22592;-77
2023/05/07 10:56:38;;;;;;;8.00;6.80;;;;;;;;;;107880;1253;25382;-79
2023/05/07 10:59:19;;;;;;;11.60;8.20;;;;;;;;;;109525;1250;22530;-77
2023/05/07 11:01:50;;;;;;;19.20;12.40;;;;;;;;;;107797;1250;24235;-77
2023/05/07 11:04:24;;;;;;;26.00;16.00;;;;;;;;;;107707;1252;22525;-78
2023/05/07 11:07:06;;;;;;;61.60;49.90;;;;;;;;;;107749;1250;25396;-79
2023/05/07 11:09:51;;;;;;;31.00;26.80;;;;;;;;;;107709;1251;22651;-79
2023/05/07 11:12:37;;;;;;;52.70;41.20;;;;;;;;;;107703;1250;22550;-77
2023/05/07 11:15:07;;;;;;;32.60;28.90;;;;;;;;;;107738;1250;22536;-78
2023/05/07 11:17:36;;;;;;;34.40;26.20;;;;;;;;;;107659;1249;25318;-78
2023/05/07 11:20:04;;;;;;;13.40;10.40;;;;;;;;;;107755;1250;22598;-76
2023/05/07 11:22:30;;;;;;;15.10;12.20;;;;;;;;;;107763;1249;25384;-81
2023/05/07 11:24:58;;;;;;;33.70;23.10;;;;;;;;;;107702;1249;24187;-77
2023/05/07 11:27:25;;;;;;;32.00;23.60;;;;;;;;;;107675;1250;22540;-78
2023/05/07 11:29:51;;;;;;;56.30;38.20;;;;;;;;;;107843;1247;22514;-77
2023/05/07 11:32:24;;;;;;;37.60;26.40;;;;;;;;;;107901;1248;22553;-78
2023/05/07 11:34:54;;;;;;;21.60;16.20;;;;;;;;;;107948;1248;25327;-78
2023/05/07 11:37:20;;;;;;;17.20;14.00;;;;;;;;;;107932;1251;22529;-78
2023/05/07 11:39:47;;;;;;;74.20;54.10;;;;;;;;;;107952;1252;22541;-78
2023/05/07 11:42:27;;;;;;;30.70;23.60;;;;;;;;;;107896;1247;25026;-79
2023/05/07 11:44:53;;;;;;;23.20;16.40;;;;;;;;;;107922;1248;25375;-77
2023/05/07 11:47:20;;;;;;;19.40;15.70;;;;;;;;;;107718;1247;22587;-78
2023/05/07 11:49:48;;;;;;;28.40;20.10;;;;;;;;;;107912;1247;25225;-79
2023/05/07 11:52:14;;;;;;;37.20;26.60;;;;;;;;;;107713;1248;22614;-79
2023/05/07 11:54:41;;;;;;;17.20;13.80;;;;;;;;;;107979;1248;22518;-79
2023/05/07 11:57:14;;;;;;;36.80;23.20;;;;;;;;;;108105;1247;22567;-77
2023/05/07 11:59:40;;;;;;;37.50;24.40;;;;;;;;;;108143;1249;22518;-79
2023/05/07 12:02:07;;;;;;;35.70;23.90;;;;;;;;;;108047;1248;24062;-79
2023/05/07 12:04:34;;;;;;;22.40;17.70;;;;;;;;;;108143;1248;24394;-77
2023/05/07 12:07:01;;;;;;;30.90;20.70;;;;;;;;;;108091;1248;22530;-77
2023/05/07 12:09:27;;;;;;;39.20;27.80;;;;;;;;;;108096;1247;25493;-77
2023/05/07 12:11:55;;;;;;;27.10;22.10;;;;;;;;;;107720;1248;22969;-79
2023/05/07 12:14:26;;;;;;;23.50;18.40;;;;;;;;;;107889;1253;25496;-77
2023/05/07 12:16:53;;;;;;;21.90;19.30;;;;;;;;;;107888;1253;22536;-76
2023/05/07 12:19:19;;;;;;;27.60;22.80;;;;;;;;;;107917;1247;24342;-79
2023/05/07 12:21:45;;;;;;;28.20;24.40;;;;;;;;;;107737;1247;25489;-77
2023/05/07 12:24:12;;;;;;;29.70;26.40;;;;;;;;;;107848;1248;22537;-77
2023/05/07 12:26:40;;;;;;;29.30;23.00;;;;;;;;;;107716;1247;22517;-77
2023/05/07 12:29:06;;;;;;;20.60;14.60;;;;;;;;;;107711;1254;22511;-81
2023/05/07 12:31:33;;;;;;;13.40;9.10;;;;;;;;;;107945;1252;22531;-78
2023/05/07 12:33:59;;;;;;;14.70;10.20;;;;;;;;;;107955;1248;23008;-76
2023/05/07 12:36:25;;;;;;;14.00;11.20;;;;;;;;;;107934;1251;25217;-78
2023/05/07 12:38:52;;;;;;;54.10;30.00;;;;;;;;;;107905;1247;25501;-78
2023/05/07 12:41:18;;;;;;;10.80;9.50;;;;;;;;;;107679;1250;22525;-76
2023/05/07 12:43:45;;;;;;;11.70;8.80;;;;;;;;;;107901;1251;24264;-76
2023/05/07 12:46:13;;;;;;;14.20;8.30;;;;;;;;;;107941;1251;25271;-77
2023/05/07 12:48:46;;;;;;;17.50;14.30;;;;;;;;;;107877;1248;23735;-77
2023/05/07 12:51:13;;;;;;;15.10;10.90;;;;;;;;;;108013;1253;25494;-81
2023/05/07 12:53:40;;;;;;;13.70;10.60;;;;;;;;;;107896;1251;25376;-77
2023/05/07 12:56:06;;;;;;;18.20;12.50;;;;;;;;;;107900;1251;23182;-77
2023/05/07 12:58:33;;;;;;;12.10;10.70;;;;;;;;;;107917;1248;22517;-80
2023/05/07 13:01:01;;;;;;;16.90;14.50;;;;;;;;;;107939;1252;22522;-77
2023/05/07 13:03:31;;;;;;;25.40;20.20;;;;;;;;;;107624;1251;22527;-78
2023/05/07 13:05:58;;;;;;;27.00;21.10;;;;;;;;;;107707;1250;22877;-77
2023/05/07 13:08:34;;;;;;;25.60;14.50;;;;;;;;;;108820;1251;23548;-77
2023/05/07 13:11:03;;;;;;;19.10;12.30;;;;;;;;;;107689;1251;22561;-78
2023/05/07 13:13:29;;;;;;;;;;;;;;;;;;110697;1249;22687;-79
2023/05/07 13:15:56;;;;;;;77.60;44.10;;;;;;;;;;107727;1253;25252;-77
2023/05/07 13:18:23;;;;;;;18.40;14.10;;;;;;;;;;107751;1253;25301;-79
2023/05/07 13:20:51;;;;;;;20.70;17.00;;;;;;;;;;107700;1251;24202;-77
2023/05/07 13:23:17;;;;;;;13.40;10.30;;;;;;;;;;107667;1251;26308;-79
2023/05/07 13:25:43;;;;;;;14.00;11.60;;;;;;;;;;107709;1249;23774;-77
2023/05/07 13:28:10;;;;;;;10.10;7.00;;;;;;;;;;107693;1251;25337;-79
2023/05/07 13:30:36;;;;;;;11.70;10.40;;;;;;;;;;107919;1248;22559;-79
2023/05/07 13:33:03;;;;;;;12.00;9.50;;;;;;;;;;107880;1248;24240;-79
2023/05/07 13:35:32;;;;;;;13.30;10.50;;;;;;;;;;107895;1248;22521;-77
2023/05/07 13:38:00;;;;;;;14.70;8.60;;;;;;;;;;107677;1248;22541;-79
2023/05/07 13:40:26;;;;;;;13.50;9.90;;;;;;;;;;107606;1247;23071;-77
2023/05/07 13:42:53;;;;;;;10.90;9.90;;;;;;;;;;107907;1247;22522;-77
2023/05/07 13:45:19;;;;;;;17.50;15.70;;;;;;;;;;107920;1247;23395;-78
2023/05/07 13:47:46;;;;;;;12.00;10.80;;;;;;;;;;107852;1248;22525;-77
2023/05/07 13:50:13;;;;;;;13.00;8.50;;;;;;;;;;107925;1248;22686;-79
2023/05/07 13:52:40;;;;;;;9.90;8.00;;;;;;;;;;107857;1248;23267;-79
2023/05/07 13:55:07;;;;;;;11.40;8.20;;;;;;;;;;107878;1248;23339;-77
2023/05/07 13:57:33;;;;;;;9.30;7.20;;;;;;;;;;107898;1248;22660;-77
2023/05/07 14:00:00;;;;;;;13.40;9.30;;;;;;;;;;107788;1253;132254;-79
2023/05/07 14:02:26;;;;;;;12.00;8.60;;;;;;;;;;107836;1248;23113;-79
2023/05/07 14:04:53;;;;;;;14.00;9.30;;;;;;;;;;107901;1251;23895;-80
2023/05/07 14:07:19;;;;;;;19.40;15.20;;;;;;;;;;107933;1252;22686;-77
2023/05/07 14:09:45;;;;;;;12.80;11.20;;;;;;;;;;107926;1248;22626;-78